Time;durP1;ratioP1;P1;durP2;ratioP2;P2;SDS_P1;SDS_P2;PMS_P1;PMS_P2;Temp;Humidity;BMP_temperature;BMP_pressure;BME280_temperature;BME280_humidity;BME280_pressure;Samples;Min_cycle;Max_cycle;Signal;HPM_P1;HPM_P2
2022/06/10 00:00:17;;;;;;;3.60;3.30;;;19.20;99.90;;;19.58;69.52;94171.22;5071003;28;20475;-53
2022/06/10 00:02:44;;;;;;;5.97;3.30;;;19.20;99.90;;;19.58;69.40;94179.22;5069824;28;20491;-52
2022/06/10 00:05:14;;;;;;;5.73;2.80;;;19.20;99.90;;;19.57;69.84;94180.25;5070656;28;20508;-55
2022/06/10 00:07:41;;;;;;;3.43;3.23;;;19.20;99.90;;;19.57;69.51;94180.25;5076179;28;20458;-54
2022/06/10 00:10:10;;;;;;;2.67;2.57;;;19.20;99.90;;;19.57;69.28;94169.56;5079986;28;20481;-55
2022/06/10 00:12:37;;;;;;;5.70;3.10;;;19.20;99.90;;;19.55;69.45;94174.31;5078231;28;20454;-55
2022/06/10 00:15:06;;;;;;;3.80;3.50;;;19.20;99.90;;;19.54;69.52;94175.31;5074162;28;20488;-57
2022/06/10 00:17:33;;;;;;;7.90;3.30;;;19.20;99.90;;;19.48;70.19;94176.19;5073484;28;20439;-57
2022/06/10 00:20:03;;;;;;;3.67;3.47;;;19.20;99.90;;;19.45;70.09;94172.06;5075326;28;20478;-52
2022/06/10 00:22:32;;;;;;;6.20;3.40;;;19.10;99.90;;;19.43;69.90;94176.81;5070263;28;20610;-55
2022/06/10 00:24:59;;;;;;;5.00;3.27;;;19.10;99.90;;;19.42;70.13;94171.69;5068206;28;20475;-53
2022/06/10 00:27:27;;;;;;;11.70;3.93;;;19.10;99.90;;;19.41;70.28;94167.38;5069598;28;20812;-52
2022/06/10 00:29:54;;;;;;;3.33;3.03;;;19.00;99.90;;;19.40;70.43;94160.41;5080562;28;20485;-52
2022/06/10 00:32:22;;;;;;;3.13;2.77;;;19.00;99.90;;;19.41;70.15;94159.38;5075748;28;20534;-53
2022/06/10 00:34:50;;;;;;;3.37;3.17;;;19.00;99.90;;;19.42;70.46;94153.03;5079676;28;20540;-54
2022/06/10 00:37:17;;;;;;;4.93;2.97;;;19.00;99.90;;;19.41;70.95;94149.53;5074007;28;20845;-54
2022/06/10 00:39:46;;;;;;;3.27;3.07;;;19.00;99.90;;;19.42;70.77;94158.34;5072071;28;20474;-53
2022/06/10 00:42:14;;;;;;;4.27;3.47;;;19.00;99.90;;;19.42;70.53;94161.81;5068232;28;20450;-54
2022/06/10 00:44:43;;;;;;;6.33;3.93;;;19.00;99.90;;;19.39;70.62;94159.59;5071572;28;20475;-55
2022/06/10 00:47:17;;;;;;;6.40;3.10;;;19.00;99.90;;;19.34;70.85;94157.56;5067749;28;20558;-55
2022/06/10 00:49:47;;;;;;;10.10;3.20;;;19.00;99.90;;;19.33;71.03;94155.09;5077186;28;20475;-53
2022/06/10 00:52:22;;;;;;;3.43;3.10;;;19.00;99.90;;;19.33;71.01;94157.75;5075055;28;20446;-54
2022/06/10 00:54:51;;;;;;;12.97;3.50;;;19.00;99.90;;;19.33;71.09;94153.28;5078822;28;20565;-54
2022/06/10 00:57:20;;;;;;;4.83;3.60;;;19.00;99.90;;;19.33;71.30;94155.09;5077784;28;20450;-55
2022/06/10 00:59:51;;;;;;;2.90;2.73;;;19.00;99.90;;;19.33;71.18;94153.28;5076640;28;21036;-51
2022/06/10 01:02:20;;;;;;;3.50;3.10;;;19.00;99.90;;;19.32;71.59;94156.94;5072438;28;20457;-53
2022/06/10 01:04:47;;;;;;;6.00;3.80;;;19.00;99.90;;;19.30;71.07;94148.34;5068038;28;20534;-55
2022/06/10 01:07:18;;;;;;;3.43;3.23;;;19.00;99.90;;;19.24;71.04;94143.88;5070141;28;20463;-54
2022/06/10 01:09:46;;;;;;;6.60;3.23;;;18.90;99.90;;;19.18;71.74;94152.72;5067365;28;20477;-56
2022/06/10 01:12:49;;;;;;;4.87;3.10;;;18.90;99.90;;;19.17;71.47;94148.41;5077901;28;20603;-53
2022/06/10 01:15:28;;;;;;;3.73;3.53;;;18.80;99.90;;;19.18;71.98;94155.38;5066516;28;20544;-53
2022/06/10 01:18:15;;;;;;;5.97;3.30;;;18.80;99.90;;;19.19;71.58;94150.84;5075836;28;20457;-56
2022/06/10 01:20:51;;;;;;;3.13;2.93;;;18.80;99.90;;;19.16;71.59;94150.25;5074471;28;20489;-53
2022/06/10 01:24:06;;;;;;;3.50;3.17;;;18.80;99.90;;;19.16;71.31;94157.41;5071545;28;20474;-53
2022/06/10 01:30:41;;;;;;;8.00;3.03;;;18.80;99.90;;;19.13;71.79;94156.00;5068894;28;20907;-57
2022/06/10 01:33:20;;;;;;;3.53;3.07;;;18.80;99.90;;;19.13;71.73;94152.50;5080905;28;20453;-55
2022/06/10 01:35:57;;;;;;;3.10;2.90;;;18.80;99.90;;;19.11;71.90;94152.72;5072804;28;20478;-55
2022/06/10 01:38:26;;;;;;;3.87;3.57;;;18.80;99.90;;;19.13;72.08;94158.69;5078325;28;20845;-55
2022/06/10 01:40:58;;;;;;;3.80;3.50;;;18.80;99.90;;;19.11;71.20;94149.25;5075752;28;20531;-54
2022/06/10 01:43:34;;;;;;;3.10;2.90;;;18.80;99.90;;;19.10;71.79;94158.25;5072182;28;20486;-54
2022/06/10 01:46:07;;;;;;;3.53;3.23;;;18.80;99.90;;;19.09;71.41;94159.31;5069126;28;20482;-55
2022/06/10 01:48:39;;;;;;;3.80;3.60;;;18.70;99.90;;;19.06;71.73;94160.53;5065849;28;20816;-52
2022/06/10 01:51:10;;;;;;;2.87;2.77;;;18.70;99.90;;;19.05;72.06;94171.41;5064541;28;21009;-55
2022/06/10 01:53:42;;;;;;;3.60;3.37;;;18.70;99.90;;;19.06;71.85;94167.72;5073354;28;20468;-53
2022/06/10 01:56:27;;;;;;;4.20;3.50;;;18.70;99.90;;;19.09;72.52;94164.63;5072208;28;20924;-57
2022/06/10 01:58:58;;;;;;;4.67;2.73;;;18.70;99.90;;;19.10;72.80;94163.59;5077377;28;20490;-53
2022/06/10 02:01:32;;;;;;;3.70;2.33;;;18.80;99.90;;;19.13;72.86;94169.34;5072717;28;20860;-56
2022/06/10 02:04:03;;;;;;;3.63;3.43;;;18.80;99.90;;;19.15;72.42;94158.47;5073830;28;20525;-53
2022/06/10 02:06:33;;;;;;;7.30;3.03;;;18.80;99.90;;;19.15;72.78;94161.94;5074220;28;20479;-54
2022/06/10 02:09:05;;;;;;;5.43;3.47;;;18.80;99.90;;;19.18;72.68;94166.03;5072849;28;20459;-55
2022/06/10 02:11:33;;;;;;;4.20;3.90;;;18.80;99.90;;;19.18;72.36;94166.03;5067167;28;20471;-53
2022/06/10 02:14:02;;;;;;;3.87;3.60;;;18.80;99.90;;;19.19;72.73;94166.84;5068032;28;20470;-54
2022/06/10 02:16:32;;;;;;;4.10;3.80;;;18.80;99.90;;;19.19;72.60;94167.66;5073698;28;20487;-56
2022/06/10 02:19:06;;;;;;;4.30;4.00;;;18.80;99.90;;;19.20;73.22;94171.97;5073927;28;20450;-54
2022/06/10 02:21:39;;;;;;;4.03;3.73;;;18.90;99.90;;;19.22;72.72;94177.09;5073360;28;20512;-54
2022/06/10 02:24:10;;;;;;;3.90;3.60;;;18.80;99.90;;;19.23;73.36;94171.56;5075580;28;20473;-55
2022/06/10 02:26:37;;;;;;;6.73;4.23;;;18.90;99.90;;;19.25;73.50;94171.34;5077028;28;20478;-56
2022/06/10 02:29:07;;;;;;;14.00;4.37;;;18.90;99.90;;;19.26;72.93;94173.78;5077427;28;20458;-53
2022/06/10 02:31:38;;;;;;;4.17;3.90;;;18.90;99.90;;;19.27;73.33;94169.28;5073866;28;20458;-54
2022/06/10 02:34:06;;;;;;;4.57;4.20;;;18.90;99.90;;;19.26;73.04;94173.78;5071297;28;20842;-55
2022/06/10 02:36:38;;;;;;;10.60;5.03;;;18.90;99.90;;;19.26;73.64;94176.47;5069089;28;20803;-55
2022/06/10 02:39:09;;;;;;;4.37;3.20;;;18.90;99.90;;;19.26;73.72;94173.00;5080884;28;20453;-53
2022/06/10 02:41:43;;;;;;;4.83;4.43;;;18.90;99.90;;;19.26;73.82;94176.47;5077315;28;20558;-53
2022/06/10 02:44:19;;;;;;;3.80;3.50;;;18.90;99.90;;;19.27;74.33;94177.28;5076122;28;20482;-54
2022/06/10 02:46:52;;;;;;;17.77;4.10;;;18.90;99.90;;;19.27;73.92;94175.44;5072332;28;20449;-53
2022/06/10 02:49:21;;;;;;;5.80;5.13;;;18.90;99.90;;;19.28;74.68;94181.59;5072790;28;20453;-54
2022/06/10 02:51:49;;;;;;;5.40;4.90;;;18.90;99.90;;;19.26;74.45;94184.47;5068899;28;20485;-53
2022/06/10 02:54:18;;;;;;;8.73;5.90;;;18.90;99.90;;;19.25;74.07;94188.16;5070408;28;20466;-54
2022/06/10 02:56:45;;;;;;;11.43;4.53;;;18.90;99.90;;;19.25;74.41;94188.16;5069906;28;20530;-56
2022/06/10 03:02:12;;;;;;;8.10;4.13;;;18.90;99.90;;;19.22;74.74;94193.91;5079641;28;20510;-56
2022/06/10 03:04:46;;;;;;;8.77;4.80;;;18.90;99.90;;;19.23;74.07;94195.53;5079119;28;20933;-56
2022/06/10 03:07:23;;;;;;;4.97;4.27;;;18.90;99.90;;;19.23;74.74;94200.88;5077332;28;20459;-54
2022/06/10 03:10:04;;;;;;;5.23;4.10;;;18.90;99.90;;;19.23;74.52;94202.72;5075780;28;20473;-53
2022/06/10 03:12:38;;;;;;;4.20;3.90;;;18.90;99.90;;;19.21;74.31;94197.63;5071617;28;20852;-56
2022/06/10 03:15:20;;;;;;;4.80;4.43;;;18.90;99.90;;;19.19;74.21;94194.31;5073310;28;21101;-53
2022/06/10 03:17:55;;;;;;;4.97;4.13;;;18.90;99.90;;;19.20;74.24;94195.97;5067170;28;20562;-54
2022/06/10 03:20:27;;;;;;;7.77;3.87;;;18.80;99.90;;;19.16;74.12;94200.91;5079622;28;20552;-54
2022/06/10 03:23:08;;;;;;;4.83;4.43;;;18.80;99.90;;;19.15;74.75;94204.59;5074181;28;20456;-54
2022/06/10 03:25:39;;;;;;;5.47;4.00;;;18.80;99.90;;;19.14;74.88;94202.94;5079930;28;20510;-54
2022/06/10 03:28:12;;;;;;;4.37;4.07;;;18.80;99.90;;;19.14;74.65;94202.13;5078468;28;20443;-57
2022/06/10 03:30:44;;;;;;;4.03;3.83;;;18.80;99.90;;;19.12;74.78;94202.34;5070965;28;20482;-54
2022/06/10 03:33:15;;;;;;;5.90;4.30;;;18.80;99.90;;;19.14;75.22;94204.81;5075133;28;20876;-56
2022/06/10 03:35:47;;;;;;;8.57;3.97;;;18.80;99.90;;;19.14;74.99;94204.81;5067296;28;20471;-53
2022/06/10 03:38:14;;;;;;;4.77;4.37;;;18.80;99.90;;;19.14;74.83;94202.13;5070299;28;20451;-53
2022/06/10 03:40:42;;;;;;;8.90;4.17;;;18.80;99.90;;;19.14;75.63;94204.81;5071899;28;20608;-54
2022/06/10 03:43:12;;;;;;;5.20;4.70;;;18.80;99.90;;;19.15;75.35;94203.78;5079935;28;20457;-53
2022/06/10 03:45:42;;;;;;;21.97;6.60;;;18.80;99.90;;;19.15;75.11;94204.59;5072933;28;20477;-55
2022/06/10 03:48:11;;;;;;;8.67;5.77;;;18.80;99.90;;;19.18;75.82;94206.03;5072219;28;20450;-52
2022/06/10 03:50:38;;;;;;;7.93;4.70;;;18.80;99.90;;;19.18;75.18;94208.69;5076819;28;20496;-53
2022/06/10 03:53:08;;;;;;;5.27;4.87;;;18.80;99.90;;;19.20;75.61;94209.28;5073665;28;20529;-55
2022/06/10 03:55:35;;;;;;;6.10;4.50;;;18.90;99.90;;;19.24;75.74;94215.03;5072211;28;20570;-53
2022/06/10 03:58:03;;;;;;;7.10;4.90;;;18.90;99.90;;;19.25;75.66;94219.34;5068423;28;20455;-54
2022/06/10 04:00:30;;;;;;;5.53;4.60;;;18.90;99.90;;;19.25;75.56;94216.66;5066852;28;20785;-54
2022/06/10 04:02:57;;;;;;;5.70;5.27;;;18.90;99.90;;;19.26;75.45;94221.78;5073732;28;20465;-54
2022/06/10 04:05:25;;;;;;;6.73;5.37;;;18.90;99.90;;;19.28;75.35;94216.25;5082400;28;20803;-57
2022/06/10 04:07:52;;;;;;;5.93;5.43;;;18.90;99.90;;;19.30;75.01;94211.50;5076342;28;20477;-55
2022/06/10 04:10:24;;;;;;;6.50;4.43;;;18.90;99.90;;;19.32;75.30;94215.63;5070388;28;20486;-55
2022/06/10 04:12:51;;;;;;;6.63;5.13;;;18.90;99.90;;;19.35;75.46;94212.53;5072736;28;20462;-54
2022/06/10 04:15:19;;;;;;;6.30;5.10;;;19.00;99.90;;;19.39;74.99;94212.13;5075467;28;20559;-57
2022/06/10 04:17:47;;;;;;;6.70;5.37;;;19.00;99.90;;;19.42;75.20;94214.34;5071717;28;20467;-54
2022/06/10 04:20:17;;;;;;;6.10;5.40;;;19.10;99.90;;;19.43;74.72;94216.81;5069277;28;20946;-53
2022/06/10 04:22:44;;;;;;;5.40;5.00;;;19.10;99.90;;;19.45;74.90;94219.28;5069206;28;20466;-55
2022/06/10 04:25:11;;;;;;;6.47;5.43;;;19.10;99.90;;;19.47;74.86;94211.88;5083146;28;20493;-55
2022/06/10 04:27:40;;;;;;;6.73;5.70;;;19.10;99.90;;;19.49;75.26;94212.50;5079390;28;20995;-55
2022/06/10 04:30:09;;;;;;;8.83;5.40;;;19.10;99.90;;;19.55;74.73;94210.81;5070926;28;21044;-56
2022/06/10 04:32:36;;;;;;;6.47;5.70;;;19.20;99.90;;;19.58;74.51;94219.22;5076191;28;20985;-54
2022/06/10 04:35:05;;;;;;;10.50;6.73;;;19.20;99.90;;;19.61;74.92;94220.63;5074174;28;20477;-55
2022/06/10 04:37:32;;;;;;;10.40;6.53;;;19.30;99.90;;;19.64;74.46;94229.06;5068575;28;20481;-54
2022/06/10 04:39:59;;;;;;;7.63;5.57;;;19.30;99.90;;;19.68;74.64;94229.44;5070714;28;20478;-55
2022/06/10 04:42:27;;;;;;;14.67;7.80;;;19.30;99.90;;;19.70;74.43;94224.69;5066730;28;20487;-54
2022/06/10 04:44:57;;;;;;;12.47;6.17;;;19.30;99.90;;;19.75;74.43;94224.06;5069502;28;20502;-54
2022/06/10 04:47:25;;;;;;;7.20;6.50;;;19.40;99.90;;;19.78;74.86;94229.00;5079126;28;20505;-55
2022/06/10 04:49:52;;;;;;;16.33;8.63;;;19.40;99.90;;;19.82;74.51;94235.56;5078021;28;20560;-53
2022/06/10 04:52:19;;;;;;;10.60;7.50;;;19.40;99.90;;;19.85;74.76;94232.47;5072589;28;20953;-56
2022/06/10 04:54:47;;;;;;;10.10;6.83;;;19.50;99.90;;;19.87;74.22;94233.88;5072031;28;20490;-56
2022/06/10 04:57:15;;;;;;;10.93;8.33;;;19.50;99.90;;;19.87;73.89;94239.22;5068231;28;20458;-54
2022/06/10 04:59:42;;;;;;;8.37;7.07;;;19.50;99.90;;;19.88;74.73;94242.72;5070187;28;20479;-54
2022/06/10 05:02:11;;;;;;;9.30;7.73;;;19.50;99.90;;;19.87;74.45;94238.41;5069205;28;20465;-55
2022/06/10 05:04:38;;;;;;;8.63;7.60;;;19.50;99.90;;;19.85;74.47;94241.28;5066846;28;20498;-56
2022/06/10 05:07:06;;;;;;;7.87;7.10;;;19.50;99.90;;;19.85;74.01;94237.81;5077941;28;20446;-54
2022/06/10 05:09:33;;;;;;;8.20;7.30;;;19.50;99.90;;;19.84;74.36;94241.50;5078289;28;20475;-56
2022/06/10 05:12:00;;;;;;;8.43;7.73;;;19.50;99.90;;;19.83;74.61;94253.19;5077217;28;20490;-54
2022/06/10 05:14:28;;;;;;;8.00;7.30;;;19.50;99.90;;;19.83;74.43;94247.84;5074129;28;20451;-54
2022/06/10 05:16:56;;;;;;;17.63;7.57;;;19.50;99.90;;;19.85;74.62;94259.97;5073727;28;20458;-55
2022/06/10 05:19:24;;;;;;;10.00;7.80;;;19.50;99.90;;;19.87;74.72;94254.41;5072464;28;20598;-55
2022/06/10 05:21:52;;;;;;;12.47;8.03;;;19.50;99.90;;;19.89;74.87;94252.34;5071247;28;20451;-57
2022/06/10 05:24:19;;;;;;;7.87;7.03;;;19.50;99.90;;;19.87;74.58;94255.22;5068790;28;20486;-54
2022/06/10 05:26:46;;;;;;;13.63;9.27;;;19.50;99.90;;;19.84;74.57;94261.00;5067734;28;20459;-55
2022/06/10 05:29:14;;;;;;;8.70;7.80;;;19.50;99.90;;;19.82;75.02;94260.41;5079874;28;20447;-56
2022/06/10 05:31:41;;;;;;;9.97;7.00;;;19.50;99.90;;;19.81;74.71;94256.06;5080409;28;20455;-55
2022/06/10 05:36:55;;;;;;;12.00;7.93;;;19.50;99.90;;;19.85;74.84;94261.84;5073271;28;21000;-55
2022/06/10 05:39:23;;;;;;;9.73;6.97;;;19.50;99.90;;;19.86;75.02;94252.78;5074935;28;20548;-56
2022/06/10 05:42:05;;;;;;;7.40;6.80;;;19.50;99.90;;;19.92;74.99;94259.13;5071577;28;20447;-55
2022/06/10 05:44:33;;;;;;;8.63;6.70;;;19.60;99.90;;;19.94;75.09;94252.56;5067708;28;20498;-54
2022/06/10 05:47:01;;;;;;;14.03;8.43;;;19.60;99.90;;;20.01;75.07;94258.66;5067436;28;20447;-54
2022/06/10 05:49:29;;;;;;;11.47;8.30;;;19.70;99.90;;;20.08;74.96;94263.97;5076154;28;20523;-55
2022/06/10 05:51:57;;;;;;;9.97;8.47;;;19.70;99.90;;;20.13;74.70;94260.66;5075129;28;20556;-54
2022/06/10 05:54:26;;;;;;;8.73;7.90;;;19.80;99.90;;;20.17;74.91;94260.03;5077533;28;20501;-54
2022/06/10 05:56:53;;;;;;;9.63;7.80;;;19.80;99.90;;;20.23;74.91;94269.00;5075777;28;20519;-53
2022/06/10 05:59:22;;;;;;;13.57;7.30;;;19.80;99.90;;;20.28;74.24;94263.03;5068311;28;20447;-55
2022/06/10 06:01:50;;;;;;;11.33;6.93;;;19.90;99.90;;;20.32;73.95;94272.25;5070482;28;20614;-54
2022/06/10 06:04:17;;;;;;;11.37;7.23;;;19.90;99.90;;;20.40;74.18;94266.66;5069102;28;20911;-55
2022/06/10 06:06:44;;;;;;;8.37;7.57;;;20.00;99.90;;;20.50;74.04;94274.22;5068854;28;20481;-55
2022/06/10 06:09:16;;;;;;;10.23;7.70;;;20.10;99.90;;;20.54;73.32;94270.88;5068389;28;20447;-55
2022/06/10 06:11:46;;;;;;;8.63;7.30;;;20.20;99.90;;;20.57;73.10;94273.13;5080195;28;20527;-54
2022/06/10 06:14:13;;;;;;;9.50;8.50;;;20.20;99.90;;;20.63;73.53;94268.75;5078753;28;20999;-54
2022/06/10 06:16:41;;;;;;;9.40;8.60;;;20.20;99.90;;;20.72;73.20;94274.69;5068364;28;20447;-54
2022/06/10 06:19:08;;;;;;;12.03;8.50;;;20.30;99.90;;;20.78;72.85;94276.50;5076378;28;20447;-57
2022/06/10 06:21:35;;;;;;;10.30;8.27;;;20.40;99.90;;;20.84;72.80;94274.81;5073060;28;20477;-56
2022/06/10 06:24:03;;;;;;;10.03;8.83;;;20.50;99.90;;;20.85;72.66;94279.94;5072360;28;20455;-54
2022/06/10 06:26:32;;;;;;;10.73;9.63;;;20.50;99.90;;;20.87;72.63;94280.53;5070081;28;20466;-55
2022/06/10 06:28:59;;;;;;;11.90;9.60;;;20.50;99.90;;;20.88;72.42;94286.69;5067739;28;20466;-55
2022/06/10 06:31:27;;;;;;;14.33;9.90;;;20.50;99.90;;;20.87;72.46;94296.56;5069088;28;20477;-54
2022/06/10 06:33:54;;;;;;;13.50;10.77;;;20.50;99.90;;;20.88;72.41;94289.34;5078381;28;20461;-55
2022/06/10 06:36:22;;;;;;;11.17;10.00;;;20.50;99.90;;;20.87;72.17;94295.75;5076967;28;21106;-55
2022/06/10 06:38:50;;;;;;;11.80;8.93;;;20.50;99.90;;;20.83;72.40;94294.56;5072960;28;20812;-56
2022/06/10 06:41:17;;;;;;;10.70;9.53;;;20.50;99.90;;;20.81;72.29;94292.09;5075529;28;21219;-55
2022/06/10 06:43:46;;;;;;;10.60;9.60;;;20.50;99.90;;;20.76;72.34;94291.94;5073563;28;20454;-53
2022/06/10 06:46:15;;;;;;;13.73;9.87;;;20.40;99.90;;;20.76;72.54;94289.25;5067030;28;20509;-55
2022/06/10 06:48:42;;;;;;;12.53;9.77;;;20.40;99.90;;;20.75;72.16;94292.97;5069194;28;20462;-54
2022/06/10 06:51:10;;;;;;;11.17;10.07;;;20.40;99.90;;;20.77;72.49;94291.72;5066851;28;21249;-56
2022/06/10 06:53:37;;;;;;;18.90;10.67;;;20.40;99.90;;;20.82;72.34;94288.41;5078765;28;20542;-53
2022/06/10 06:56:05;;;;;;;13.17;10.20;;;20.40;99.90;;;20.85;72.13;94292.47;5079267;28;21298;-55
2022/06/10 06:58:33;;;;;;;18.63;10.20;;;20.50;99.90;;;20.87;72.48;94282.41;5080304;28;20473;-55
2022/06/10 07:01:01;;;;;;;12.30;11.00;;;20.50;99.90;;;20.91;72.66;94280.91;5076617;28;20469;-56
2022/06/10 07:03:29;;;;;;;11.23;10.13;;;20.50;99.90;;;20.94;72.73;94283.13;5072968;28;20479;-56
2022/06/10 07:05:56;;;;;;;11.43;10.43;;;20.50;99.90;;;20.99;72.58;94288.66;5069267;28;20502;-54
2022/06/10 07:08:31;;;;;;;11.10;10.10;;;20.60;99.90;;;21.09;72.69;94286.31;5070304;28;20470;-55
2022/06/10 07:10:59;;;;;;;14.43;10.40;;;20.70;99.90;;;21.20;71.89;94289.31;5067771;28;20466;-56
2022/06/10 07:13:26;;;;;;;10.90;9.73;;;20.80;99.90;;;21.24;71.71;94291.31;5067194;28;21340;-55
2022/06/10 07:15:54;;;;;;;10.33;9.27;;;20.80;99.90;;;21.27;71.43;94279.34;5084664;28;20558;-55
2022/06/10 07:18:23;;;;;;;12.20;7.07;;;20.90;99.90;;;21.31;71.46;94294.72;5082639;28;20443;-54
2022/06/10 07:20:50;;;;;;;8.27;7.53;;;20.90;99.90;;;21.36;70.80;94283.38;5079363;28;20474;-55
2022/06/10 07:23:19;;;;;;;9.70;8.30;;;20.90;99.90;;;21.34;70.44;94285.44;5079593;28;20446;-53
2022/06/10 07:25:47;;;;;;;10.33;9.20;;;20.90;99.90;;;21.28;70.50;94283.66;5075262;28;20517;-55
2022/06/10 07:28:16;;;;;;;19.13;9.10;;;20.90;99.90;;;21.20;70.71;94283.94;5074837;28;20492;-54
2022/06/10 07:30:43;;;;;;;9.93;9.03;;;20.80;99.90;;;21.19;71.37;94293.00;5071938;28;20467;-54
2022/06/10 07:33:11;;;;;;;11.10;8.57;;;20.80;99.90;;;21.22;71.17;94293.38;5069940;28;20988;-55
2022/06/10 07:35:40;;;;;;;8.40;7.70;;;20.80;99.90;;;21.27;70.89;94295.38;5073570;28;20803;-56
2022/06/10 07:38:08;;;;;;;9.07;7.73;;;20.90;99.90;;;21.32;70.87;94295.56;5077095;28;20510;-55
2022/06/10 07:43:21;;;;;;;8.83;7.90;;;21.00;99.90;;;21.40;70.13;94292.59;5079582;28;20434;-54
2022/06/10 07:45:48;;;;;;;8.60;7.80;;;21.00;99.90;;;21.40;70.03;94302.50;5075781;28;20558;-55
2022/06/10 07:48:16;;;;;;;10.53;8.97;;;21.10;99.90;;;21.40;69.88;94295.28;5075855;28;20459;-54
2022/06/10 07:50:45;;;;;;;9.37;8.47;;;21.10;99.90;;;21.43;70.08;94300.19;5073473;28;20475;-55
2022/06/10 07:53:13;;;;;;;10.57;9.67;;;21.10;99.90;;;21.48;70.04;94302.19;5071331;28;20454;-55
2022/06/10 07:55:40;;;;;;;10.80;9.70;;;21.10;99.90;;;21.51;69.93;94298.28;5069040;28;20479;-54
2022/06/10 07:58:08;;;;;;;10.70;9.60;;;21.10;99.90;;;21.53;69.78;94304.22;5076819;28;20885;-54
2022/06/10 08:00:36;;;;;;;9.80;8.43;;;21.10;99.90;;;21.53;69.44;94305.03;5083032;28;20478;-54
2022/06/10 08:03:05;;;;;;;8.20;7.40;;;21.20;99.90;;;21.49;69.04;94304.69;5080293;28;20450;-54
2022/06/10 08:05:33;;;;;;;9.90;8.13;;;21.20;99.90;;;21.46;69.25;94314.97;5080642;28;20490;-55
2022/06/10 08:08:02;;;;;;;11.60;7.80;;;21.10;99.90;;;21.49;69.03;94299.31;5075132;28;20453;-56
2022/06/10 08:10:32;;;;;;;12.07;7.80;;;21.10;99.90;;;21.54;69.22;94301.34;5074832;28;20479;-54
2022/06/10 08:12:59;;;;;;;9.30;8.40;;;21.20;99.90;;;21.62;69.17;94308.25;5072838;28;20455;-55
2022/06/10 08:15:27;;;;;;;8.33;7.63;;;21.20;99.90;;;21.73;68.68;94309.38;5069820;28;20467;-53
2022/06/10 08:17:56;;;;;;;8.50;7.67;;;21.30;99.90;;;21.84;68.51;94314.81;5072054;28;20452;-54
2022/06/10 08:22:32;;;;;;;12.57;7.77;;;21.40;99.90;;;21.93;67.73;94309.16;5082083;28;20462;-55
2022/06/10 08:23:13;;;;;;;9.73;7.93;;;21.50;99.90;;;22.02;67.13;94315.84;5080482;28;20434;-54
2022/06/10 08:25:40;;;;;;;8.20;7.40;;;21.60;99.90;;;22.11;66.97;94305.66;5078788;28;21088;-55
2022/06/10 08:28:08;;;;;;;8.87;8.07;;;21.70;99.90;;;22.17;67.16;94310.91;5077159;28;20976;-53
2022/06/10 08:30:35;;;;;;;12.90;6.97;;;21.80;99.90;;;22.25;66.53;94319.69;5074428;28;20527;-54
2022/06/10 08:33:03;;;;;;;7.13;6.40;;;21.80;99.90;;;22.25;65.68;94327.72;5073058;28;20843;-55
2022/06/10 08:35:31;;;;;;;15.27;7.37;;;21.80;99.70;;;22.24;65.80;94320.72;5068362;28;21510;-55
2022/06/10 08:37:58;;;;;;;10.10;6.50;;;21.90;99.80;;;22.24;65.89;94321.53;5060806;28;20453;-56
2022/06/10 08:40:33;;;;;;;6.47;5.77;;;21.90;99.70;;;22.27;66.38;94326.44;5079538;28;20665;-54
2022/06/10 08:43:04;;;;;;;8.50;5.93;;;21.90;99.70;;;22.28;65.81;94335.31;5072673;28;20446;-55
2022/06/10 08:45:34;;;;;;;8.00;5.77;;;21.90;99.30;;;22.28;65.50;94332.63;5079856;28;20505;-54
2022/06/10 08:48:10;;;;;;;5.00;4.60;;;21.90;99.50;;;22.33;65.35;94330.13;5077530;28;20499;-53
2022/06/10 08:51:13;;;;;;;5.10;4.70;;;21.90;99.10;;;22.31;64.31;94332.22;5073003;28;20859;-55
2022/06/10 08:54:07;;;;;;;10.07;5.30;;;21.90;98.50;;;22.29;64.56;94340.44;5014254;28;20441;-55
2022/06/10 08:56:36;;;;;;;7.50;5.00;;;22.00;98.30;;;22.33;64.46;94347.00;5068773;28;20469;-56
2022/06/10 08:59:11;;;;;;;6.20;5.37;;;22.00;98.60;;;22.38;64.62;94344.47;5068026;28;20451;-54
2022/06/10 09:01:45;;;;;;;6.60;5.50;;;22.00;98.50;;;22.45;64.58;94339.03;5074371;28;20822;-55
2022/06/10 09:04:27;;;;;;;7.00;5.40;;;22.10;98.70;;;22.55;64.66;94328.56;5078719;28;20478;-55
2022/06/10 09:06:56;;;;;;;10.17;4.83;;;22.10;98.60;;;22.60;64.14;94335.91;5078413;28;20489;-55
2022/06/10 09:09:26;;;;;;;6.57;4.87;;;22.10;98.00;;;22.63;63.42;94337.34;5076780;28;20454;-55
2022/06/10 09:12:00;;;;;;;10.73;6.10;;;22.20;97.90;;;22.66;63.86;94355.66;5069169;28;20455;-54
2022/06/10 09:14:28;;;;;;;6.10;5.60;;;22.20;97.70;;;22.66;63.25;94339.56;5072736;28;20541;-57
2022/06/10 09:16:59;;;;;;;11.70;6.00;;;22.20;97.30;;;22.67;62.51;94346.56;5070341;28;20538;-55
2022/06/10 09:19:34;;;;;;;6.30;5.80;;;22.20;97.40;;;22.71;63.01;94348.56;5067657;28;20442;-57
2022/06/10 09:22:09;;;;;;;5.83;5.30;;;22.30;97.30;;;22.81;62.58;94342.63;5065471;28;20443;-53
2022/06/10 09:24:39;;;;;;;8.20;6.03;;;22.40;97.40;;;22.91;62.38;94337.53;5081913;28;20463;-55
2022/06/10 09:27:15;;;;;;;7.17;6.57;;;22.50;97.10;;;23.03;62.44;94339.44;5078206;28;20506;-54
2022/06/10 09:29:42;;;;;;;8.10;5.20;;;22.60;97.00;;;23.18;62.86;94342.50;5075121;28;20973;-55
2022/06/10 09:32:11;;;;;;;6.93;5.30;;;22.70;97.20;;;23.33;62.08;94333.19;5074772;28;20464;-54
2022/06/10 09:34:53;;;;;;;4.90;4.60;;;22.90;96.80;;;23.43;60.84;94333.44;5072442;28;21082;-54
2022/06/10 09:37:30;;;;;;;4.40;4.10;;;23.00;96.00;;;23.55;61.11;94330.75;5072252;28;20449;-55
2022/06/10 09:43:39;;;;;;;7.33;4.73;;;23.20;95.80;;;23.96;59.33;94337.03;5066045;28;20438;-55
2022/06/10 09:46:29;;;;;;;4.87;4.57;;;23.40;95.10;;;23.99;59.93;94340.06;5073852;28;20889;-54
2022/06/10 09:49:12;;;;;;;4.77;4.47;;;23.50;95.20;;;23.98;59.55;94340.28;5078781;28;20905;-57
2022/06/10 09:51:49;;;;;;;5.20;3.87;;;23.50;94.70;;;23.90;59.20;94344.16;5074307;28;20454;-57
2022/06/10 09:54:33;;;;;;;4.47;4.07;;;23.50;94.60;;;23.79;59.52;94348.47;5075037;28;20982;-54
2022/06/10 09:57:25;;;;;;;5.10;3.50;;;23.40;94.50;;;23.67;58.99;94349.53;5071779;28;20876;-53
2022/06/10 09:59:58;;;;;;;5.10;3.90;;;23.30;94.50;;;23.56;60.26;94349.31;5069688;28;20850;-56
2022/06/10 10:02:38;;;;;;;5.37;4.20;;;23.20;94.80;;;23.43;59.74;94350.34;5066782;28;20466;-56
2022/06/10 10:05:33;;;;;;;10.37;4.57;;;23.10;94.80;;;23.32;60.69;94358.41;5071977;28;20477;-55
2022/06/10 10:08:05;;;;;;;5.40;3.90;;;23.00;94.90;;;23.18;60.77;94360.50;5080100;28;20446;-54
2022/06/10 10:10:36;;;;;;;4.97;4.20;;;22.80;95.00;;;23.09;61.02;94370.72;5079702;28;20474;-58
2022/06/10 10:13:35;;;;;;;7.33;4.80;;;22.70;95.20;;;23.02;61.82;94367.28;5070146;28;20451;-57
2022/06/10 10:16:09;;;;;;;9.10;5.10;;;22.60;95.80;;;22.93;62.65;94369.50;5054233;28;20479;-58
2022/06/10 10:18:50;;;;;;;10.47;3.80;;;22.60;96.20;;;22.85;62.36;94364.44;5071957;28;20450;-57
2022/06/10 10:21:21;;;;;;;5.73;3.87;;;22.50;96.60;;;22.73;62.26;94367.09;5068318;28;20482;-54
2022/06/10 10:23:50;;;;;;;4.50;4.10;;;22.40;96.40;;;22.63;62.27;94370.31;5067921;28;20447;-55
2022/06/10 10:26:21;;;;;;;6.80;4.97;;;22.30;96.40;;;22.48;62.60;94376.09;5069674;28;20489;-54
2022/06/10 10:28:52;;;;;;;7.40;4.90;;;22.20;96.30;;;22.37;63.18;94377.66;5078101;28;20446;-55
2022/06/10 10:31:24;;;;;;;5.77;4.33;;;22.10;96.80;;;22.26;63.49;94372.22;5080589;28;20473;-54
2022/06/10 10:33:52;;;;;;;4.47;4.17;;;22.00;97.00;;;22.13;63.38;94376.69;5075851;28;20442;-55
2022/06/10 10:36:31;;;;;;;5.00;4.07;;;21.80;97.00;;;22.04;64.36;94378.03;5070177;28;20994;-54
2022/06/10 10:38:59;;;;;;;6.37;4.80;;;21.80;97.50;;;21.95;64.38;94387.38;5071719;28;20456;-55
2022/06/10 10:41:35;;;;;;;7.93;5.93;;;21.70;97.80;;;21.81;66.11;94382.19;5071185;28;20974;-55
2022/06/10 10:44:06;;;;;;;6.90;6.27;;;21.50;98.60;;;21.67;66.24;94386.03;5065833;28;20447;-54
2022/06/10 10:46:40;;;;;;;7.07;6.47;;;21.40;98.90;;;21.52;67.21;94389.06;5069721;28;20478;-55
2022/06/10 10:49:23;;;;;;;7.67;6.90;;;21.30;99.40;;;21.37;69.19;94391.22;5081533;28;20475;-55